Time;durP1;ratioP1;P1;durP2;ratioP2;P2;SDS_P1;SDS_P2;PMS_P1;PMS_P2;Temp;Humidity;BMP_temperature;BMP_pressure;BME280_temperature;BME280_humidity;BME280_pressure;Samples;Min_cycle;Max_cycle;Signal;HPM_P1;HPM_P2
2021/11/21 00:00:23;;;;;;;35.22;16.80;;;;;;;12.02;62.50;101453.44;4940472;28;118555;-74
2021/11/21 00:02:50;;;;;;;35.70;17.08;;;;;;;12.03;62.50;101449.84;4927379;28;124495;-74
2021/11/21 00:05:18;;;;;;;38.22;17.42;;;;;;;12.00;62.40;101440.22;4949644;28;123844;-75
2021/11/21 00:07:45;;;;;;;34.03;16.05;;;;;;;11.98;62.39;101436.78;4932084;28;120070;-74
2021/11/21 00:10:12;;;;;;;35.28;16.17;;;;;;;11.97;62.57;101435.03;4949605;28;119134;-75
2021/11/21 00:12:39;;;;;;;32.17;15.73;;;;;;;11.99;62.52;101432.31;4949875;28;125314;-74
2021/11/21 00:15:07;;;;;;;33.65;15.95;;;;;;;11.98;62.53;101430.56;4949358;28;123750;-74
2021/11/21 00:17:35;;;;;;;32.70;16.05;;;;;;;11.96;62.65;101421.81;4949505;28;119396;-74
2021/11/21 00:20:04;;;;;;;34.28;16.15;;;;;;;11.94;62.52;101423.69;4935636;28;119533;-75
2021/11/21 00:22:35;;;;;;;36.03;16.23;;;;;;;11.93;62.79;101420.16;4931231;28;123508;-74
2021/11/21 00:25:03;;;;;;;34.65;16.33;;;;;;;11.93;62.68;101422.81;4946924;28;124711;-74
2021/11/21 00:27:31;;;;;;;34.38;16.05;;;;;;;11.93;62.84;101414.00;4931920;28;118937;-75
2021/11/21 00:29:58;;;;;;;30.40;15.43;;;;;;;11.92;62.89;101405.16;4948800;28;119686;-74
2021/11/21 00:32:28;;;;;;;32.65;15.23;;;;;;;11.92;62.57;101404.28;4949297;28;124505;-75
2021/11/21 00:34:55;;;;;;;33.78;16.38;;;;;;;11.91;62.71;101406.09;4931965;28;123883;-75
2021/11/21 00:37:22;;;;;;;31.75;14.90;;;;;;;11.91;62.79;101397.28;4935963;28;119075;-74
2021/11/21 00:39:49;;;;;;;30.52;14.60;;;;;;;11.92;62.90;101399.00;4947795;28;118782;-75
2021/11/21 00:42:17;;;;;;;29.67;15.23;;;;;;;11.92;62.71;101394.53;4950093;28;123612;-74
2021/11/21 00:44:44;;;;;;;31.77;15.18;;;;;;;11.92;62.82;101388.38;4950049;28;124127;-74
2021/11/21 00:47:11;;;;;;;35.00;15.68;;;;;;;11.92;62.90;101385.72;4949791;28;119696;-74
2021/11/21 00:49:40;;;;;;;33.67;15.45;;;;;;;11.92;62.88;101388.38;4949698;28;118930;-75
2021/11/21 00:52:08;;;;;;;30.85;14.65;;;;;;;11.92;62.73;101377.75;4948721;28;124494;-74
2021/11/21 00:54:45;;;;;;;31.80;15.35;;;;;;;11.92;62.76;101377.75;4930577;28;123610;-74
2021/11/21 00:57:13;;;;;;;29.20;14.63;;;;;;;11.93;62.84;101379.50;4925457;28;119864;-74
2021/11/21 00:59:40;;;;;;;31.77;15.40;;;;;;;11.94;62.96;101367.94;4933941;28;120075;-74
2021/11/21 01:02:11;;;;;;;30.23;14.82;;;;;;;11.93;63.06;101363.56;4920044;28;124374;-75
2021/11/21 01:04:41;;;;;;;29.55;14.40;;;;;;;11.91;63.00;101358.31;4943500;28;123673;-74
2021/11/21 01:07:10;;;;;;;31.05;14.73;;;;;;;11.93;63.04;101363.56;4922845;28;119282;-75
2021/11/21 01:09:38;;;;;;;31.23;14.48;;;;;;;11.93;62.91;101363.56;4932171;28;117518;-75
2021/11/21 01:12:08;;;;;;;31.05;14.35;;;;;;;11.93;63.17;101358.25;4951011;28;123797;-74
2021/11/21 01:14:37;;;;;;;28.35;14.10;;;;;;;11.94;62.90;101365.28;4931218;28;122571;-74
2021/11/21 01:17:06;;;;;;;27.40;14.00;;;;;;;11.93;62.92;101358.25;4949256;28;120246;-74
2021/11/21 01:19:34;;;;;;;28.77;14.18;;;;;;;11.93;63.13;101363.56;4930608;28;118706;-74
2021/11/21 01:22:02;;;;;;;29.13;14.43;;;;;;;11.94;63.09;101354.66;4947509;28;124020;-75
2021/11/21 01:24:30;;;;;;;29.85;13.95;;;;;;;11.93;62.91;101360.91;4947992;28;123981;-74
2021/11/21 01:26:57;;;;;;;30.08;14.30;;;;;;;11.94;63.03;101360.84;4948430;28;120030;-75
2021/11/21 01:29:25;;;;;;;28.27;13.45;;;;;;;11.94;63.14;101365.28;4951137;28;118726;-75
2021/11/21 01:31:52;;;;;;;30.58;14.40;;;;;;;11.95;63.20;101353.75;4917374;28;123337;-75
2021/11/21 01:34:19;;;;;;;30.13;14.30;;;;;;;11.96;63.13;101358.09;4951602;28;124652;-75
2021/11/21 01:36:46;;;;;;;30.08;13.82;;;;;;;11.95;63.09;101362.56;4943383;28;119094;-75
2021/11/21 01:39:13;;;;;;;28.35;13.98;;;;;;;11.95;63.08;101361.72;4951494;28;119141;-75
2021/11/21 01:41:42;;;;;;;28.70;14.07;;;;;;;11.96;63.29;101347.50;4932872;28;123084;-75
2021/11/21 01:44:12;;;;;;;27.65;13.82;;;;;;;11.96;63.04;101352.81;4933568;28;122184;-75
2021/11/21 01:46:40;;;;;;;27.90;13.90;;;;;;;11.94;63.11;101344.03;4934023;28;120602;-76
2021/11/21 01:49:09;;;;;;;30.75;14.75;;;;;;;11.94;63.05;101338.72;4933992;28;121107;-75
2021/11/21 01:51:37;;;;;;;28.75;13.50;;;;;;;11.93;63.07;101347.63;4951498;28;123612;-75
2021/11/21 01:54:05;;;;;;;28.83;13.57;;;;;;;11.92;63.13;101345.91;4951464;28;124111;-75
2021/11/21 01:56:33;;;;;;;31.02;13.60;;;;;;;11.93;63.06;101331.72;4951720;28;119414;-74
2021/11/21 01:59:00;;;;;;;31.25;14.68;;;;;;;11.94;63.46;101328.13;4934117;28;118406;-75
2021/11/21 02:01:27;;;;;;;27.63;13.13;;;;;;;11.95;63.34;101321.88;4937003;28;123781;-75
2021/11/21 02:03:54;;;;;;;26.85;12.77;;;;;;;11.96;62.96;101318.28;4952183;28;123420;-75
2021/11/21 02:06:22;;;;;;;29.30;13.52;;;;;;;11.97;63.27;101322.69;4934190;28;119699;-75
2021/11/21 02:08:53;;;;;;;27.05;12.95;;;;;;;11.95;63.26;101317.44;4934087;28;118801;-74
2021/11/21 02:11:21;;;;;;;27.98;12.93;;;;;;;11.95;63.38;101305.97;4949328;28;124763;-75
2021/11/21 02:13:49;;;;;;;27.83;13.20;;;;;;;11.96;63.38;101310.31;4951775;28;124197;-74
2021/11/21 02:16:19;;;;;;;27.08;12.20;;;;;;;11.95;63.24;101303.31;4951734;28;119236;-74
2021/11/21 02:18:47;;;;;;;26.05;12.50;;;;;;;11.95;63.39;101298.00;4959999;28;119672;-75
2021/11/21 02:21:16;;;;;;;27.00;12.57;;;;;;;11.94;63.43;101285.66;4938772;28;124034;-74
2021/11/21 02:23:45;;;;;;;25.83;12.48;;;;;;;11.93;63.28;101283.94;4964486;28;123669;-74
2021/11/21 02:26:15;;;;;;;27.45;12.65;;;;;;;11.92;63.27;101287.50;4934256;28;119073;-74
2021/11/21 02:28:42;;;;;;;26.70;12.13;;;;;;;11.94;63.18;101285.66;4951127;28;119151;-74
2021/11/21 02:31:11;;;;;;;28.27;12.20;;;;;;;11.93;63.41;101284.78;4950824;28;123628;-75
2021/11/21 02:33:41;;;;;;;26.75;12.38;;;;;;;11.93;63.35;101282.13;4933546;28;123662;-74
2021/11/21 02:36:09;;;;;;;27.27;12.48;;;;;;;11.92;63.19;101271.56;4924422;28;119111;-75
2021/11/21 02:38:36;;;;;;;27.83;12.63;;;;;;;11.92;63.50;101271.56;4930256;28;120630;-75
2021/11/21 02:41:06;;;;;;;24.70;12.52;;;;;;;11.92;63.14;101263.63;4924834;28;122872;-74
2021/11/21 02:43:34;;;;;;;26.48;12.60;;;;;;;11.92;63.60;101266.28;4916978;28;123862;-74
2021/11/21 02:46:02;;;;;;;26.85;11.73;;;;;;;11.93;63.52;101257.41;4917560;28;117835;-74
2021/11/21 02:48:31;;;;;;;24.30;11.82;;;;;;;11.93;63.39;101252.94;4951433;28;119331;-74
2021/11/21 02:51:02;;;;;;;25.45;12.00;;;;;;;11.94;63.47;101253.78;4950180;28;124401;-75
2021/11/21 02:53:33;;;;;;;26.27;12.40;;;;;;;11.95;63.35;101244.91;4951556;28;124327;-74
2021/11/21 02:56:03;;;;;;;28.10;12.38;;;;;;;11.94;63.65;101243.16;4931846;28;119682;-75
2021/11/21 02:58:32;;;;;;;23.98;11.00;;;;;;;11.95;63.41;101244.91;4946676;28;119592;-74
2021/11/21 03:01:13;;;;;;;26.65;11.20;;;;;;;11.93;63.33;101241.47;4949470;28;124131;-75
2021/11/21 03:03:40;;;;;;;27.42;12.40;;;;;;;11.94;63.64;101237.88;4950225;28;124281;-74
2021/11/21 03:06:08;;;;;;;26.85;12.20;;;;;;;11.91;63.36;101233.56;4929763;28;118501;-74
2021/11/21 03:08:35;;;;;;;27.77;12.73;;;;;;;11.91;63.57;101227.41;4950381;28;119012;-75
2021/11/21 03:11:14;;;;;;;30.52;13.10;;;;;;;11.90;63.57;101221.22;4950128;28;124400;-75
2021/11/21 03:13:42;;;;;;;25.40;11.73;;;;;;;11.90;63.60;101209.75;4947603;28;125376;-74
2021/11/21 03:16:10;;;;;;;25.65;11.20;;;;;;;11.90;63.34;101209.75;4950743;28;119577;-74
2021/11/21 03:18:37;;;;;;;24.42;11.52;;;;;;;11.90;63.43;101215.03;4932970;28;118838;-74
2021/11/21 03:21:05;;;;;;;27.52;13.13;;;;;;;11.90;63.52;101210.59;4950126;28;124006;-73
2021/11/21 03:23:32;;;;;;;27.50;12.57;;;;;;;11.90;63.48;101210.59;4932345;28;123488;-74
2021/11/21 03:25:59;;;;;;;26.80;12.50;;;;;;;11.89;63.62;101208.84;4932384;28;119684;-74
2021/11/21 03:28:26;;;;;;;27.02;12.15;;;;;;;11.90;63.77;101199.13;4949688;28;120135;-75
2021/11/21 03:30:53;;;;;;;27.15;12.05;;;;;;;11.91;63.71;101203.50;4949947;28;124891;-74
2021/11/21 03:33:20;;;;;;;30.05;12.57;;;;;;;11.92;63.71;101207.88;4950479;28;123073;-75
2021/11/21 03:35:48;;;;;;;27.05;13.05;;;;;;;11.93;63.58;101199.00;4950212;28;119038;-74
2021/11/21 03:38:15;;;;;;;26.02;12.35;;;;;;;11.92;63.57;101202.56;4950723;28;118758;-74
2021/11/21 03:40:42;;;;;;;31.50;13.35;;;;;;;11.93;63.62;101194.53;4949204;28;124906;-74
2021/11/21 03:43:09;;;;;;;30.40;13.95;;;;;;;11.95;63.68;101197.13;4950616;28;123926;-75
2021/11/21 03:45:36;;;;;;;27.80;13.60;;;;;;;11.95;63.77;101192.69;4946853;28;119533;-74
2021/11/21 03:48:04;;;;;;;27.58;12.82;;;;;;;11.95;63.69;101186.50;4933005;28;118992;-74
2021/11/21 03:50:31;;;;;;;29.50;12.57;;;;;;;11.96;63.73;101182.91;4931031;28;123927;-74
2021/11/21 03:52:58;;;;;;;29.80;12.55;;;;;;;11.96;63.74;101177.59;4947871;28;123957;-74
2021/11/21 03:55:26;;;;;;;29.35;12.75;;;;;;;11.98;63.75;101175.72;4950206;28;119579;-75
2021/11/21 03:57:53;;;;;;;28.52;12.68;;;;;;;11.97;63.76;101174.03;4953403;28;119026;-74
2021/11/21 04:00:25;;;;;;;27.88;13.32;;;;;;;11.99;63.81;101177.47;4949613;28;124226;-74
2021/11/21 04:02:53;;;;;;;31.27;13.45;;;;;;;12.00;63.85;101173.91;4949647;28;123556;-74
2021/11/21 04:05:21;;;;;;;30.42;13.48;;;;;;;12.01;63.86;101170.31;4960231;28;119567;-75
2021/11/21 04:07:48;;;;;;;30.63;13.73;;;;;;;12.01;63.84;101170.31;4953903;28;118868;-73
2021/11/21 04:10:16;;;;;;;32.30;13.82;;;;;;;12.02;63.86;101178.19;4949449;28;124952;-74
2021/11/21 04:12:43;;;;;;;31.58;14.38;;;;;;;12.01;63.70;101165.00;4949847;28;124818;-73
2021/11/21 04:15:11;;;;;;;29.83;13.18;;;;;;;12.01;63.76;101165.00;4949261;28;120262;-75
2021/11/21 04:17:40;;;;;;;33.33;14.05;;;;;;;12.04;63.95;101159.56;4949726;28;119514;-74
2021/11/21 04:20:09;;;;;;;34.50;14.32;;;;;;;12.04;64.00;101160.41;4931263;28;123894;-74
2021/11/21 04:22:36;;;;;;;32.63;14.38;;;;;;;12.07;63.82;101159.38;4950329;28;124102;-74
2021/11/21 04:25:04;;;;;;;29.83;13.65;;;;;;;12.07;63.83;101148.78;4931410;28;117437;-74
2021/11/21 04:27:33;;;;;;;31.17;14.00;;;;;;;12.09;63.77;101146.91;4931888;28;119810;-74
2021/11/21 04:30:00;;;;;;;33.47;13.55;;;;;;;12.09;63.86;101154.88;4931469;28;124189;-74
2021/11/21 04:32:30;;;;;;;29.70;13.10;;;;;;;12.09;63.95;101152.22;4949981;28;123677;-74
2021/11/21 04:34:57;;;;;;;32.05;14.15;;;;;;;12.11;63.69;101150.38;4931014;28;117923;-75
2021/11/21 04:37:24;;;;;;;34.03;14.57;;;;;;;12.12;63.91;101152.09;4932337;28;118583;-75
2021/11/21 04:39:52;;;;;;;34.25;14.18;;;;;;;12.14;63.84;101147.56;4935471;28;123066;-74
2021/11/21 04:42:19;;;;;;;31.45;13.98;;;;;;;12.14;63.98;101150.22;4943045;28;123589;-74
2021/11/21 04:44:46;;;;;;;31.17;14.13;;;;;;;12.14;63.80;101155.53;4941754;28;119674;-74
2021/11/21 04:47:13;;;;;;;36.22;14.63;;;;;;;12.14;64.10;101139.59;4949324;28;118806;-73
2021/11/21 04:49:40;;;;;;;32.15;14.07;;;;;;;12.15;63.96;101136.03;4948989;28;123991;-74
2021/11/21 04:52:08;;;;;;;35.78;14.10;;;;;;;12.16;63.89;101129.75;4948750;28;123070;-74
2021/11/21 04:54:35;;;;;;;36.42;15.30;;;;;;;12.18;63.85;101130.53;4949263;28;119284;-74
2021/11/21 04:57:04;;;;;;;34.60;15.05;;;;;;;12.18;63.95;101114.63;4949983;28;118973;-74
2021/11/21 04:59:31;;;;;;;37.95;15.32;;;;;;;12.19;64.08;101115.50;4949299;28;124201;-74
2021/11/21 05:01:59;;;;;;;35.42;14.80;;;;;;;12.18;63.87;101119.91;4929584;28;123033;-74
2021/11/21 05:04:26;;;;;;;37.17;15.77;;;;;;;12.18;63.92;101119.91;4952220;28;120942;-74
2021/11/21 05:06:54;;;;;;;41.33;15.95;;;;;;;12.17;63.96;101118.22;4958907;28;120547;-73
2021/11/21 05:09:21;;;;;;;39.15;15.32;;;;;;;12.18;64.15;101114.63;4929082;28;123863;-74
2021/11/21 05:11:48;;;;;;;38.95;15.20;;;;;;;12.20;64.01;101111.88;4927385;28;123675;-74
2021/11/21 05:14:18;;;;;;;42.97;15.82;;;;;;;12.21;63.88;101118.94;4945264;28;119080;-74
2021/11/21 05:16:45;;;;;;;41.25;15.60;;;;;;;12.22;64.02;101115.34;4948644;28;119266;-74
2021/11/21 05:19:13;;;;;;;40.97;16.30;;;;;;;12.23;64.02;101114.41;4948337;28;124628;-75
2021/11/21 05:21:40;;;;;;;42.15;16.13;;;;;;;12.23;64.01;101112.59;4928961;28;123870;-76
2021/11/21 05:24:08;;;;;;;41.75;16.08;;;;;;;12.26;64.06;101106.28;4946245;28;119002;-76
2021/11/21 05:26:35;;;;;;;40.08;16.42;;;;;;;12.26;63.89;101117.78;4946566;28;119124;-76
2021/11/21 05:29:03;;;;;;;41.55;16.80;;;;;;;12.26;64.02;101116.91;4946622;28;124964;-76
2021/11/21 05:31:32;;;;;;;42.92;17.17;;;;;;;12.26;63.97;101123.09;4952983;28;124275;-77
2021/11/21 05:33:59;;;;;;;40.70;15.63;;;;;;;12.27;64.14;101130.09;4952366;28;119971;-76
2021/11/21 05:36:26;;;;;;;42.88;15.60;;;;;;;12.27;64.11;101124.81;4952243;28;118368;-76
2021/11/21 05:38:53;;;;;;;43.45;16.33;;;;;;;12.28;64.11;101125.66;4970359;28;123660;-76
2021/11/21 05:41:20;;;;;;;41.55;15.80;;;;;;;12.27;63.92;101124.81;4969844;28;123384;-76
2021/11/21 05:43:47;;;;;;;40.53;15.80;;;;;;;12.26;64.12;101117.78;4953712;28;118824;-76
2021/11/21 05:46:15;;;;;;;40.10;15.93;;;;;;;12.26;64.09;101117.78;4960972;28;119866;-76
2021/11/21 05:48:42;;;;;;;41.38;15.27;;;;;;;12.26;64.17;101128.41;4948583;28;124784;-76
2021/11/21 05:51:09;;;;;;;36.97;15.05;;;;;;;12.25;64.32;101126.66;4931442;28;123988;-77
2021/11/21 05:53:36;;;;;;;32.95;13.63;;;;;;;12.26;64.11;101112.47;4950908;28;119853;-76
2021/11/21 05:56:04;;;;;;;32.47;13.30;;;;;;;12.27;64.13;101122.16;4956334;28;119518;-76
2021/11/21 05:58:33;;;;;;;31.98;13.15;;;;;;;12.26;64.16;101123.09;4937584;28;121955;-76
2021/11/21 06:01:00;;;;;;;33.60;13.35;;;;;;;12.27;64.17;101118.63;4955978;28;122817;-76
2021/11/21 06:03:28;;;;;;;33.10;14.15;;;;;;;12.27;64.15;101130.09;4961673;28;119701;-75
2021/11/21 06:05:56;;;;;;;33.30;13.20;;;;;;;12.29;64.29;101121.22;4934632;28;118117;-75
2021/11/21 06:08:23;;;;;;;32.75;13.60;;;;;;;12.31;64.25;101124.66;4931331;28;124813;-76
2021/11/21 06:10:50;;;;;;;30.05;12.65;;;;;;;12.32;64.59;101121.06;4930866;28;123353;-75
2021/11/21 06:13:17;;;;;;;30.48;12.38;;;;;;;12.33;64.34;101117.47;4949361;28;119008;-75
2021/11/21 06:15:45;;;;;;;29.30;12.15;;;;;;;12.36;64.30;101120.00;4953759;28;119622;-75
2021/11/21 06:18:12;;;;;;;28.08;11.68;;;;;;;12.39;64.16;101122.50;4941668;28;123320;-75
2021/11/21 06:20:39;;;;;;;26.65;11.07;;;;;;;12.41;64.24;101115.31;4937320;28;123786;-75
2021/11/21 06:23:07;;;;;;;27.83;11.15;;;;;;;12.44;64.37;101123.13;4955878;28;120046;-75
2021/11/21 06:25:34;;;;;;;24.75;10.55;;;;;;;12.44;64.13;101125.78;4954504;28;118821;-76
2021/11/21 06:28:01;;;;;;;24.10;9.98;;;;;;;12.45;64.46;101119.53;4936803;28;122717;-75
2021/11/21 06:30:28;;;;;;;24.35;10.68;;;;;;;12.46;64.16;101129.25;4936931;28;123639;-75
2021/11/21 06:32:55;;;;;;;23.52;9.93;;;;;;;12.48;64.18;101122.03;4953897;28;119204;-75
2021/11/21 06:35:22;;;;;;;25.95;11.10;;;;;;;12.50;64.16;101122.84;4951846;28;118238;-75
2021/11/21 06:37:49;;;;;;;26.55;11.32;;;;;;;12.52;64.30;101131.59;4940048;28;124817;-75
2021/11/21 06:40:16;;;;;;;25.77;11.05;;;;;;;12.53;64.27;101129.81;4942252;28;124420;-75
2021/11/21 06:42:44;;;;;;;27.67;11.38;;;;;;;12.54;64.45;101132.38;4948291;28;120002;-75
2021/11/21 06:45:12;;;;;;;28.17;11.50;;;;;;;12.54;64.33;101129.72;4942152;28;119943;-75
2021/11/21 06:47:40;;;;;;;25.15;10.88;;;;;;;12.55;64.37;101118.16;4933440;28;123835;-75
2021/11/21 06:50:11;;;;;;;23.55;10.77;;;;;;;12.58;64.13;101128.66;4949738;28;123897;-76
2021/11/21 06:52:39;;;;;;;25.40;11.07;;;;;;;12.60;64.07;101121.47;4946852;28;119549;-75
2021/11/21 06:55:07;;;;;;;23.88;10.05;;;;;;;12.61;64.14;101122.31;4946655;28;119349;-75
2021/11/21 06:57:34;;;;;;;22.42;10.73;;;;;;;12.61;64.13;101128.47;4917564;28;123160;-75
2021/11/21 07:00:08;;;;;;;24.70;10.65;;;;;;;12.64;64.20;101133.66;4948855;28;125300;-75
2021/11/21 07:02:35;;;;;;;25.65;10.57;;;;;;;12.65;64.21;101119.41;4930280;28;118310;-76
2021/11/21 07:05:04;;;;;;;22.55;9.82;;;;;;;12.69;64.15;101113.97;4931184;28;120436;-76
2021/11/21 07:07:31;;;;;;;22.83;9.80;;;;;;;12.73;64.17;101115.53;4945158;28;123950;-76
2021/11/21 07:09:58;;;;;;;23.17;9.77;;;;;;;12.75;64.17;101126.94;4930650;28;123409;-76
2021/11/21 07:12:25;;;;;;;24.02;10.32;;;;;;;12.75;63.86;101119.84;4949412;28;120155;-75
2021/11/21 07:15:14;;;;;;;25.58;10.52;;;;;;;12.77;63.82;101133.03;4951871;28;119667;-74
2021/11/21 07:17:42;;;;;;;25.27;9.60;;;;;;;12.77;64.04;101123.28;4912444;28;123460;-75
2021/11/21 07:20:15;;;;;;;23.83;10.13;;;;;;;12.78;63.90;101134.78;4933226;28;123129;-75
2021/11/21 07:22:44;;;;;;;23.83;9.73;;;;;;;12.79;64.01;101137.34;4932683;28;119262;-75
2021/11/21 07:25:12;;;;;;;23.85;9.75;;;;;;;12.80;63.86;101143.53;4942309;28;120120;-73
2021/11/21 07:27:42;;;;;;;25.42;10.02;;;;;;;12.80;63.87;101143.53;4946773;28;124753;-75
2021/11/21 07:30:15;;;;;;;24.00;10.82;;;;;;;12.82;64.01;101146.97;4940251;28;123656;-75
2021/11/21 07:32:43;;;;;;;24.10;9.55;;;;;;;12.81;63.91;101146.13;4931388;28;120622;-74
2021/11/21 07:35:12;;;;;;;27.73;10.55;;;;;;;12.83;63.79;101148.69;4950127;28;119898;-74
2021/11/21 07:37:40;;;;;;;20.60;9.60;;;;;;;12.82;63.87;101152.28;4932561;28;124857;-74
2021/11/21 07:40:12;;;;;;;23.08;9.90;;;;;;;12.83;63.97;101156.69;4948650;28;123584;-75
2021/11/21 07:42:40;;;;;;;24.73;10.40;;;;;;;12.83;63.85;101164.66;4931409;28;118234;-74
2021/11/21 07:45:09;;;;;;;26.23;10.00;;;;;;;12.82;63.87;101162.91;4950074;28;119095;-74
2021/11/21 07:47:36;;;;;;;20.80;9.07;;;;;;;12.84;63.88;101166.34;4948300;28;123795;-75
2021/11/21 07:50:04;;;;;;;23.80;9.50;;;;;;;12.83;63.92;101154.03;4948973;28;123659;-75
2021/11/21 07:52:31;;;;;;;22.80;9.95;;;;;;;12.84;63.87;101158.38;4932709;28;118575;-74
2021/11/21 07:54:58;;;;;;;22.23;9.85;;;;;;;12.86;63.98;101164.47;4927778;28;118292;-75
2021/11/21 07:57:25;;;;;;;20.10;9.30;;;;;;;12.85;63.94;101163.63;4943719;28;123752;-74
2021/11/21 07:59:52;;;;;;;22.42;9.73;;;;;;;12.87;63.80;101168.88;4942612;28;123695;-72
2021/11/21 08:02:19;;;;;;;21.45;9.25;;;;;;;12.86;63.93;101167.13;4948157;28;120076;-74
2021/11/21 08:04:47;;;;;;;21.85;8.90;;;;;;;12.87;63.94;101155.59;4956811;28;118794;-74
2021/11/21 08:07:14;;;;;;;18.27;8.68;;;;;;;12.88;63.73;101157.28;4933583;28;123677;-74
2021/11/21 08:09:43;;;;;;;18.63;8.68;;;;;;;12.87;63.67;101166.22;4935584;28;124390;-74
2021/11/21 08:12:10;;;;;;;18.02;9.05;;;;;;;12.87;63.79;101155.59;4949442;28;119169;-74
2021/11/21 08:14:38;;;;;;;20.23;8.52;;;;;;;12.88;63.84;101159.94;4950586;28;118975;-74
2021/11/21 08:17:05;;;;;;;19.90;8.05;;;;;;;12.90;63.78;101163.38;4932311;28;123770;-74
2021/11/21 08:19:32;;;;;;;18.50;8.18;;;;;;;12.90;63.93;101166.03;4932018;28;124767;-75
2021/11/21 08:22:00;;;;;;;18.50;8.52;;;;;;;12.91;63.83;101173.09;4938368;28;119401;-74
2021/11/21 08:24:27;;;;;;;16.25;7.47;;;;;;;12.92;63.97;101180.16;4928122;28;119790;-74
2021/11/21 08:26:54;;;;;;;17.52;8.13;;;;;;;12.94;63.93;101167.63;4941841;28;124716;-74
2021/11/21 08:29:22;;;;;;;19.48;8.13;;;;;;;12.95;63.86;101174.66;4912514;28;123197;-74
2021/11/21 08:31:58;;;;;;;17.88;7.93;;;;;;;12.96;63.78;101180.84;4919270;28;118157;-74
2021/11/21 08:34:27;;;;;;;17.88;7.53;;;;;;;12.96;63.87;101181.72;4931746;28;118004;-74
2021/11/21 08:36:54;;;;;;;19.23;7.68;;;;;;;12.96;63.98;101181.72;4917738;28;123530;-75
2021/11/21 08:39:21;;;;;;;15.63;7.68;;;;;;;12.97;64.00;101188.75;4932586;28;124372;-74
2021/11/21 08:41:54;;;;;;;16.35;7.57;;;;;;;12.96;63.59;101192.34;4934933;28;118958;-74
2021/11/21 08:44:23;;;;;;;16.85;7.70;;;;;;;12.97;64.08;101183.41;4938966;28;119890;-74
2021/11/21 08:46:51;;;;;;;18.17;8.00;;;;;;;12.97;63.93;101180.75;4931552;28;123878;-74
2021/11/21 08:49:18;;;;;;;13.80;6.55;;;;;;;12.99;64.19;101188.66;4949243;28;124082;-74
2021/11/21 08:51:48;;;;;;;15.52;7.18;;;;;;;13.00;64.22;101182.44;4948823;28;119256;-74
2021/11/21 08:54:16;;;;;;;14.13;6.82;;;;;;;13.01;64.31;101184.97;4949427;28;119786;-74
2021/11/21 08:56:45;;;;;;;16.08;7.00;;;;;;;13.03;64.30;101188.47;4930753;28;123565;-75
2021/11/21 08:59:13;;;;;;;16.48;7.28;;;;;;;13.06;64.30;101182.13;4949742;28;123625;-74
2021/11/21 09:01:42;;;;;;;13.05;6.45;;;;;;;13.08;64.32;101179.38;4948285;28;119524;-75
2021/11/21 09:04:10;;;;;;;15.93;6.07;;;;;;;13.10;64.40;101182.81;4944217;28;118676;-74
2021/11/21 09:06:38;;;;;;;10.80;5.68;;;;;;;13.11;64.30;101184.53;4938958;28;124042;-74
2021/11/21 09:09:05;;;;;;;11.23;5.60;;;;;;;13.12;64.32;101186.25;4956989;28;124076;-74
2021/11/21 09:11:32;;;;;;;9.95;4.55;;;;;;;13.14;64.41;101189.72;4948369;28;119823;-74
2021/11/21 09:14:03;;;;;;;12.13;5.05;;;;;;;13.15;64.23;101196.75;4949240;28;120069;-74
2021/11/21 09:16:31;;;;;;;9.40;4.18;;;;;;;13.17;64.33;101194.88;4949126;28;123609;-74
2021/11/21 09:18:58;;;;;;;9.23;3.75;;;;;;;13.19;64.53;101193.00;4939745;28;123547;-74
2021/11/21 09:21:26;;;;;;;10.07;3.70;;;;;;;13.20;64.31;101194.69;4944417;28;119519;-74
2021/11/21 09:23:53;;;;;;;9.50;3.28;;;;;;;13.22;64.42;101198.16;4949061;28;119212;-74
2021/11/21 09:26:20;;;;;;;9.88;3.72;;;;;;;13.22;64.11;101204.34;4937454;28;123802;-74
2021/11/21 09:28:47;;;;;;;8.60;3.30;;;;;;;13.23;64.04;101210.53;4930747;28;123174;-74
2021/11/21 09:31:14;;;;;;;7.35;2.80;;;;;;;13.23;64.04;101211.38;4931312;28;118489;-74
2021/11/21 09:33:41;;;;;;;8.00;3.08;;;;;;;13.23;64.25;101205.19;4931520;28;118984;-74
2021/11/21 09:36:10;;;;;;;8.35;2.65;;;;;;;13.24;63.89;101206.91;4949437;28;123699;-75
2021/11/21 09:38:37;;;;;;;9.35;2.65;;;;;;;13.23;63.92;101210.53;4949542;28;124575;-74
2021/11/21 09:41:04;;;;;;;9.02;3.22;;;;;;;13.23;63.78;101215.84;4932483;28;118393;-73
2021/11/21 09:43:32;;;;;;;7.20;2.70;;;;;;;13.24;63.76;101212.22;4932487;28;118337;-74
2021/11/21 09:45:59;;;;;;;7.28;2.45;;;;;;;13.25;63.86;101214.81;4932715;28;124068;-75
2021/11/21 09:48:31;;;;;;;6.65;2.50;;;;;;;13.28;63.79;101208.50;4934967;28;123868;-73
2021/11/21 09:51:00;;;;;;;9.70;2.50;;;;;;;13.29;63.83;101218.19;4953906;28;120041;-73
2021/11/21 09:53:27;;;;;;;6.85;2.40;;;;;;;13.32;63.72;101220.72;4954925;28;118330;-73
2021/11/21 09:55:55;;;;;;;8.13;2.40;;;;;;;13.34;63.81;101218.84;4954191;28;124071;-73
2021/11/21 09:58:23;;;;;;;7.68;2.00;;;;;;;13.34;63.43;101213.53;4951769;28;123719;-73
2021/11/21 10:00:50;;;;;;;6.35;2.03;;;;;;;13.34;63.39;101213.53;4950962;28;120045;-73
2021/11/21 10:03:18;;;;;;;5.97;1.60;;;;;;;13.34;63.21;101218.00;4950313;28;120391;-73
2021/11/21 10:05:55;;;;;;;7.13;1.95;;;;;;;13.32;63.05;101214.56;4952999;28;124248;-73
2021/11/21 10:08:25;;;;;;;7.20;1.70;;;;;;;13.31;63.16;101213.69;4935084;28;122951;-73
2021/11/21 10:10:55;;;;;;;7.78;1.80;;;;;;;13.30;62.95;101206.66;4953821;28;118844;-73
2021/11/21 10:13:35;;;;;;;6.53;1.60;;;;;;;13.29;62.96;101215.53;4951858;28;118897;-73
2021/11/21 10:16:17;;;;;;;4.57;1.70;;;;;;;13.29;62.98;101207.53;4936917;28;124096;-74
2021/11/21 10:18:47;;;;;;;6.80;1.42;;;;;;;13.28;63.03;101219.13;4935956;28;123662;-74
2021/11/21 10:21:16;;;;;;;5.85;1.60;;;;;;;13.25;62.87;101214.81;4936201;28;119351;-74
2021/11/21 10:23:44;;;;;;;6.05;1.33;;;;;;;13.26;62.76;101221.03;4935768;28;117750;-74
2021/11/21 10:26:22;;;;;;;5.10;1.20;;;;;;;13.24;62.63;101213.13;4934588;28;123058;-74
2021/11/21 10:28:52;;;;;;;6.75;1.50;;;;;;;13.26;62.82;101202.41;4948828;28;124223;-74
2021/11/21 10:31:24;;;;;;;6.72;1.52;;;;;;;13.26;62.76;101205.06;4951256;28;118352;-74
2021/11/21 10:33:55;;;;;;;4.38;1.30;;;;;;;13.27;62.57;101196.13;4949410;28;119236;-74
2021/11/21 10:36:24;;;;;;;6.72;1.23;;;;;;;13.28;62.55;101203.19;4933979;28;123885;-74
2021/11/21 10:38:54;;;;;;;6.03;1.30;;;;;;;13.28;62.50;101208.50;4933883;28;123284;-74
2021/11/21 10:41:25;;;;;;;6.90;1.40;;;;;;;13.28;62.38;101208.50;4951746;28;119226;-74
2021/11/21 10:44:04;;;;;;;8.57;1.52;;;;;;;13.29;62.45;101199.56;4950553;28;118650;-74
2021/11/21 10:46:53;;;;;;;4.85;1.33;;;;;;;13.31;62.38;101208.34;4948580;28;124212;-74
2021/11/21 10:49:32;;;;;;;7.13;1.10;;;;;;;13.32;62.59;101199.44;4934372;28;122852;-74
2021/11/21 10:51:59;;;;;;;6.18;1.25;;;;;;;13.35;62.28;101199.28;4934165;28;120442;-75
2021/11/21 10:54:33;;;;;;;7.93;1.23;;;;;;;13.37;62.32;101197.44;4936307;28;119779;-74
2021/11/21 10:57:04;;;;;;;4.22;1.10;;;;;;;13.40;62.30;101202.56;4951227;28;123866;-74
2021/11/21 10:59:37;;;;;;;6.43;1.20;;;;;;;13.42;62.08;101197.19;4951022;28;123850;-73
2021/11/21 11:02:14;;;;;;;5.32;1.33;;;;;;;13.41;62.04;101204.31;4935453;28;117705;-73
2021/11/21 11:05:08;;;;;;;7.13;1.45;;;;;;;13.42;61.96;101206.00;4933273;28;119427;-73
2021/11/21 11:07:41;;;;;;;8.65;1.42;;;;;;;13.42;61.92;101211.34;4932517;28;124348;-73
2021/11/21 11:10:18;;;;;;;5.10;1.20;;;;;;;13.42;61.92;101211.34;4933782;28;121683;-73